sensor_id;sensor_type;location;lat;lon;timestamp;P1;durP1;ratioP1;P2;durP2;ratioP2
6614;SDS011;3343;42.896;23.912;2022-11-15T00:02:16;7.73;;;4.20;;
6614;SDS011;3343;42.896;23.912;2022-11-15T00:04:43;6.60;;;3.80;;
6614;SDS011;3343;42.896;23.912;2022-11-15T00:07:10;8.17;;;4.27;;
6614;SDS011;3343;42.896;23.912;2022-11-15T00:09:36;10.07;;;4.90;;
6614;SDS011;3343;42.896;23.912;2022-11-15T00:12:03;7.67;;;4.27;;
6614;SDS011;3343;42.896;23.912;2022-11-15T00:14:32;10.13;;;4.33;;
6614;SDS011;3343;42.896;23.912;2022-11-15T00:16:59;10.30;;;4.67;;
6614;SDS011;3343;42.896;23.912;2022-11-15T00:19:26;6.70;;;3.63;;
6614;SDS011;3343;42.896;23.912;2022-11-15T00:21:53;7.00;;;3.63;;
6614;SDS011;3343;42.896;23.912;2022-11-15T00:24:19;5.57;;;3.67;;
6614;SDS011;3343;42.896;23.912;2022-11-15T00:26:46;5.67;;;3.30;;
6614;SDS011;3343;42.896;23.912;2022-11-15T00:29:13;7.07;;;4.13;;
6614;SDS011;3343;42.896;23.912;2022-11-15T00:31:42;7.43;;;3.97;;
6614;SDS011;3343;42.896;23.912;2022-11-15T00:34:09;6.03;;;3.70;;
6614;SDS011;3343;42.896;23.912;2022-11-15T00:36:35;7.43;;;4.33;;
6614;SDS011;3343;42.896;23.912;2022-11-15T00:39:03;8.10;;;3.67;;
6614;SDS011;3343;42.896;23.912;2022-11-15T00:41:30;6.83;;;4.03;;
6614;SDS011;3343;42.896;23.912;2022-11-15T00:43:57;6.73;;;4.50;;
6614;SDS011;3343;42.896;23.912;2022-11-15T00:46:25;7.37;;;4.37;;
6614;SDS011;3343;42.896;23.912;2022-11-15T00:48:53;10.60;;;4.07;;
6614;SDS011;3343;42.896;23.912;2022-11-15T00:51:20;8.27;;;4.07;;
6614;SDS011;3343;42.896;23.912;2022-11-15T00:53:47;11.70;;;4.27;;
6614;SDS011;3343;42.896;23.912;2022-11-15T00:56:14;10.77;;;4.23;;
6614;SDS011;3343;42.896;23.912;2022-11-15T00:58:41;7.90;;;3.67;;
6614;SDS011;3343;42.896;23.912;2022-11-15T01:01:08;6.93;;;3.60;;
6614;SDS011;3343;42.896;23.912;2022-11-15T01:03:36;5.33;;;3.97;;
6614;SDS011;3343;42.896;23.912;2022-11-15T01:06:07;5.90;;;3.67;;
6614;SDS011;3343;42.896;23.912;2022-11-15T01:08:35;6.20;;;4.03;;
6614;SDS011;3343;42.896;23.912;2022-11-15T01:11:02;6.77;;;3.60;;
6614;SDS011;3343;42.896;23.912;2022-11-15T01:13:30;7.47;;;3.73;;
6614;SDS011;3343;42.896;23.912;2022-11-15T01:15:58;7.80;;;3.97;;
6614;SDS011;3343;42.896;23.912;2022-11-15T01:18:25;7.50;;;3.80;;
6614;SDS011;3343;42.896;23.912;2022-11-15T01:20:52;7.43;;;3.93;;
6614;SDS011;3343;42.896;23.912;2022-11-15T01:23:20;8.60;;;4.07;;
6614;SDS011;3343;42.896;23.912;2022-11-15T01:25:47;6.40;;;3.13;;
6614;SDS011;3343;42.896;23.912;2022-11-15T01:28:14;8.03;;;3.27;;
6614;SDS011;3343;42.896;23.912;2022-11-15T01:30:40;6.77;;;3.20;;
6614;SDS011;3343;42.896;23.912;2022-11-15T01:33:07;5.93;;;3.37;;
6614;SDS011;3343;42.896;23.912;2022-11-15T01:35:37;6.33;;;3.20;;
6614;SDS011;3343;42.896;23.912;2022-11-15T01:38:05;8.17;;;3.50;;
6614;SDS011;3343;42.896;23.912;2022-11-15T01:40:33;7.17;;;3.50;;
6614;SDS011;3343;42.896;23.912;2022-11-15T01:45:46;8.20;;;3.13;;
6614;SDS011;3343;42.896;23.912;2022-11-15T01:48:16;5.37;;;3.07;;
6614;SDS011;3343;42.896;23.912;2022-11-15T01:50:43;6.77;;;3.37;;
6614;SDS011;3343;42.896;23.912;2022-11-15T01:53:11;7.00;;;3.47;;
6614;SDS011;3343;42.896;23.912;2022-11-15T01:55:39;6.03;;;3.80;;
6614;SDS011;3343;42.896;23.912;2022-11-15T01:58:06;5.33;;;3.90;;
6614;SDS011;3343;42.896;23.912;2022-11-15T02:00:34;4.10;;;3.03;;
6614;SDS011;3343;42.896;23.912;2022-11-15T02:03:01;5.27;;;3.13;;
6614;SDS011;3343;42.896;23.912;2022-11-15T02:05:29;4.47;;;3.17;;
6614;SDS011;3343;42.896;23.912;2022-11-15T02:07:57;5.53;;;2.83;;
6614;SDS011;3343;42.896;23.912;2022-11-15T02:10:24;6.33;;;2.90;;
6614;SDS011;3343;42.896;23.912;2022-11-15T02:12:53;6.27;;;3.37;;
6614;SDS011;3343;42.896;23.912;2022-11-15T02:15:22;6.50;;;3.90;;
6614;SDS011;3343;42.896;23.912;2022-11-15T02:26:55;5.77;;;3.57;;
6614;SDS011;3343;42.896;23.912;2022-11-15T02:29:50;5.27;;;3.03;;
6614;SDS011;3343;42.896;23.912;2022-11-15T02:32:31;5.17;;;3.63;;
6614;SDS011;3343;42.896;23.912;2022-11-15T02:35:09;6.80;;;2.67;;
6614;SDS011;3343;42.896;23.912;2022-11-15T02:37:44;7.17;;;3.90;;
6614;SDS011;3343;42.896;23.912;2022-11-15T02:40:22;5.57;;;2.77;;
6614;SDS011;3343;42.896;23.912;2022-11-15T02:42:54;4.23;;;2.57;;
6614;SDS011;3343;42.896;23.912;2022-11-15T02:45:41;7.43;;;3.13;;
6614;SDS011;3343;42.896;23.912;2022-11-15T02:48:13;7.40;;;3.37;;
6614;SDS011;3343;42.896;23.912;2022-11-15T02:50:42;5.67;;;2.90;;
6614;SDS011;3343;42.896;23.912;2022-11-15T02:53:09;6.00;;;3.37;;
6614;SDS011;3343;42.896;23.912;2022-11-15T02:55:37;5.00;;;2.70;;
6614;SDS011;3343;42.896;23.912;2022-11-15T02:58:16;4.03;;;2.60;;
6614;SDS011;3343;42.896;23.912;2022-11-15T03:00:56;3.27;;;2.33;;
6614;SDS011;3343;42.896;23.912;2022-11-15T03:03:35;3.37;;;2.50;;
6614;SDS011;3343;42.896;23.912;2022-11-15T03:06:15;7.97;;;3.33;;
6614;SDS011;3343;42.896;23.912;2022-11-15T03:08:53;3.63;;;2.27;;
6614;SDS011;3343;42.896;23.912;2022-11-15T03:11:28;3.70;;;2.30;;
6614;SDS011;3343;42.896;23.912;2022-11-15T03:14:02;6.60;;;2.70;;
6614;SDS011;3343;42.896;23.912;2022-11-15T03:16:40;5.20;;;2.67;;
6614;SDS011;3343;42.896;23.912;2022-11-15T03:19:16;4.73;;;2.80;;
6614;SDS011;3343;42.896;23.912;2022-11-15T03:21:49;3.93;;;2.97;;
6614;SDS011;3343;42.896;23.912;2022-11-15T03:24:19;5.70;;;2.83;;
6614;SDS011;3343;42.896;23.912;2022-11-15T03:26:49;4.57;;;3.07;;
6614;SDS011;3343;42.896;23.912;2022-11-15T03:29:18;5.83;;;3.47;;
6614;SDS011;3343;42.896;23.912;2022-11-15T03:31:50;6.27;;;3.90;;
6614;SDS011;3343;42.896;23.912;2022-11-15T03:34:26;6.27;;;3.80;;
6614;SDS011;3343;42.896;23.912;2022-11-15T03:36:56;7.47;;;3.90;;
6614;SDS011;3343;42.896;23.912;2022-11-15T03:39:23;6.47;;;3.77;;
6614;SDS011;3343;42.896;23.912;2022-11-15T03:41:54;4.67;;;2.80;;
6614;SDS011;3343;42.896;23.912;2022-11-15T03:44:32;3.80;;;2.57;;
6614;SDS011;3343;42.896;23.912;2022-11-15T03:47:03;4.73;;;2.60;;
6614;SDS011;3343;42.896;23.912;2022-11-15T03:49:38;5.10;;;2.90;;
6614;SDS011;3343;42.896;23.912;2022-11-15T03:52:10;5.50;;;3.77;;
6614;SDS011;3343;42.896;23.912;2022-11-15T03:54:47;6.83;;;3.73;;
6614;SDS011;3343;42.896;23.912;2022-11-15T03:57:14;7.23;;;3.37;;
6614;SDS011;3343;42.896;23.912;2022-11-15T03:59:41;9.30;;;3.80;;
6614;SDS011;3343;42.896;23.912;2022-11-15T04:02:08;5.93;;;2.80;;
6614;SDS011;3343;42.896;23.912;2022-11-15T04:04:35;5.00;;;2.93;;
6614;SDS011;3343;42.896;23.912;2022-11-15T04:07:03;3.50;;;2.40;;
6614;SDS011;3343;42.896;23.912;2022-11-15T04:09:30;5.07;;;2.93;;
6614;SDS011;3343;42.896;23.912;2022-11-15T04:11:57;4.27;;;2.63;;
6614;SDS011;3343;42.896;23.912;2022-11-15T04:14:24;3.03;;;2.43;;
6614;SDS011;3343;42.896;23.912;2022-11-15T04:16:51;5.90;;;2.90;;
6614;SDS011;3343;42.896;23.912;2022-11-15T04:19:18;4.30;;;2.93;;
6614;SDS011;3343;42.896;23.912;2022-11-15T04:22:03;5.03;;;3.20;;
6614;SDS011;3343;42.896;23.912;2022-11-15T04:24:47;3.73;;;2.87;;
6614;SDS011;3343;42.896;23.912;2022-11-15T04:27:14;5.47;;;2.60;;
6614;SDS011;3343;42.896;23.912;2022-11-15T04:29:41;10.70;;;6.33;;
6614;SDS011;3343;42.896;23.912;2022-11-15T04:32:08;13.07;;;5.87;;
6614;SDS011;3343;42.896;23.912;2022-11-15T04:34:35;7.40;;;5.23;;
6614;SDS011;3343;42.896;23.912;2022-11-15T04:37:05;6.67;;;4.20;;
6614;SDS011;3343;42.896;23.912;2022-11-15T04:39:41;6.27;;;3.60;;
6614;SDS011;3343;42.896;23.912;2022-11-15T04:42:09;5.23;;;3.03;;
6614;SDS011;3343;42.896;23.912;2022-11-15T04:44:36;5.53;;;3.17;;
6614;SDS011;3343;42.896;23.912;2022-11-15T04:47:03;3.93;;;2.80;;
6614;SDS011;3343;42.896;23.912;2022-11-15T04:49:31;5.27;;;3.63;;
6614;SDS011;3343;42.896;23.912;2022-11-15T04:51:58;4.60;;;3.13;;
6614;SDS011;3343;42.896;23.912;2022-11-15T04:54:26;4.73;;;3.13;;
6614;SDS011;3343;42.896;23.912;2022-11-15T04:56:53;4.20;;;2.83;;
6614;SDS011;3343;42.896;23.912;2022-11-15T04:59:20;3.70;;;2.93;;
6614;SDS011;3343;42.896;23.912;2022-11-15T05:01:47;6.17;;;3.00;;
6614;SDS011;3343;42.896;23.912;2022-11-15T05:04:14;3.73;;;2.93;;
6614;SDS011;3343;42.896;23.912;2022-11-15T05:06:47;5.33;;;3.20;;
6614;SDS011;3343;42.896;23.912;2022-11-15T05:09:14;3.93;;;3.13;;
6614;SDS011;3343;42.896;23.912;2022-11-15T05:11:43;3.73;;;3.00;;
6614;SDS011;3343;42.896;23.912;2022-11-15T05:14:11;4.83;;;3.27;;
6614;SDS011;3343;42.896;23.912;2022-11-15T05:16:38;4.50;;;2.90;;
6614;SDS011;3343;42.896;23.912;2022-11-15T05:19:05;4.93;;;3.10;;
6614;SDS011;3343;42.896;23.912;2022-11-15T05:21:32;5.30;;;3.30;;
6614;SDS011;3343;42.896;23.912;2022-11-15T05:24:00;7.53;;;4.00;;
6614;SDS011;3343;42.896;23.912;2022-11-15T05:26:27;5.27;;;3.33;;
6614;SDS011;3343;42.896;23.912;2022-11-15T05:28:56;6.73;;;3.67;;
6614;SDS011;3343;42.896;23.912;2022-11-15T05:31:25;8.90;;;4.63;;
6614;SDS011;3343;42.896;23.912;2022-11-15T05:33:53;4.97;;;3.13;;
6614;SDS011;3343;42.896;23.912;2022-11-15T05:36:22;5.10;;;3.03;;
6614;SDS011;3343;42.896;23.912;2022-11-15T05:38:54;5.80;;;3.27;;
6614;SDS011;3343;42.896;23.912;2022-11-15T05:41:22;4.27;;;3.30;;
6614;SDS011;3343;42.896;23.912;2022-11-15T05:43:53;4.60;;;3.33;;
6614;SDS011;3343;42.896;23.912;2022-11-15T05:46:21;5.67;;;3.53;;
6614;SDS011;3343;42.896;23.912;2022-11-15T05:48:49;4.23;;;2.97;;
6614;SDS011;3343;42.896;23.912;2022-11-15T05:51:18;4.53;;;3.23;;
6614;SDS011;3343;42.896;23.912;2022-11-15T05:53:49;5.73;;;3.63;;
6614;SDS011;3343;42.896;23.912;2022-11-15T05:56:18;7.10;;;3.37;;
6614;SDS011;3343;42.896;23.912;2022-11-15T05:58:45;8.70;;;4.60;;
6614;SDS011;3343;42.896;23.912;2022-11-15T06:01:12;8.20;;;4.43;;
6614;SDS011;3343;42.896;23.912;2022-11-15T06:03:41;7.20;;;4.20;;
6614;SDS011;3343;42.896;23.912;2022-11-15T06:06:08;6.87;;;3.40;;
6614;SDS011;3343;42.896;23.912;2022-11-15T06:08:35;14.10;;;4.83;;
6614;SDS011;3343;42.896;23.912;2022-11-15T06:11:03;6.77;;;3.63;;
6614;SDS011;3343;42.896;23.912;2022-11-15T06:13:30;4.33;;;3.20;;
6614;SDS011;3343;42.896;23.912;2022-11-15T06:15:57;6.63;;;3.30;;
6614;SDS011;3343;42.896;23.912;2022-11-15T06:18:25;9.97;;;4.10;;
6614;SDS011;3343;42.896;23.912;2022-11-15T06:20:53;6.13;;;3.73;;
6614;SDS011;3343;42.896;23.912;2022-11-15T06:23:20;5.03;;;3.50;;
6614;SDS011;3343;42.896;23.912;2022-11-15T06:25:47;7.67;;;4.10;;
6614;SDS011;3343;42.896;23.912;2022-11-15T06:28:14;5.40;;;3.23;;
6614;SDS011;3343;42.896;23.912;2022-11-15T06:30:41;4.00;;;2.80;;
6614;SDS011;3343;42.896;23.912;2022-11-15T06:33:07;5.50;;;3.10;;
6614;SDS011;3343;42.896;23.912;2022-11-15T06:35:35;4.83;;;2.70;;
6614;SDS011;3343;42.896;23.912;2022-11-15T06:38:04;3.57;;;2.30;;
6614;SDS011;3343;42.896;23.912;2022-11-15T06:40:33;5.57;;;3.07;;
6614;SDS011;3343;42.896;23.912;2022-11-15T06:43:01;4.23;;;3.07;;
6614;SDS011;3343;42.896;23.912;2022-11-15T06:45:29;4.20;;;2.80;;
6614;SDS011;3343;42.896;23.912;2022-11-15T06:47:56;3.33;;;2.20;;
6614;SDS011;3343;42.896;23.912;2022-11-15T06:50:23;5.57;;;2.87;;
6614;SDS011;3343;42.896;23.912;2022-11-15T06:52:50;4.80;;;3.10;;
6614;SDS011;3343;42.896;23.912;2022-11-15T06:55:18;4.60;;;2.97;;
6614;SDS011;3343;42.896;23.912;2022-11-15T06:57:46;4.00;;;3.03;;
6614;SDS011;3343;42.896;23.912;2022-11-15T07:00:15;4.53;;;3.03;;
6614;SDS011;3343;42.896;23.912;2022-11-15T07:02:43;4.27;;;2.80;;
6614;SDS011;3343;42.896;23.912;2022-11-15T07:05:10;5.00;;;3.20;;
6614;SDS011;3343;42.896;23.912;2022-11-15T07:07:37;5.83;;;3.77;;
6614;SDS011;3343;42.896;23.912;2022-11-15T07:10:05;6.20;;;3.63;;
6614;SDS011;3343;42.896;23.912;2022-11-15T07:12:34;5.37;;;2.77;;
6614;SDS011;3343;42.896;23.912;2022-11-15T07:15:01;6.80;;;3.57;;
6614;SDS011;3343;42.896;23.912;2022-11-15T07:17:28;4.03;;;2.77;;
6614;SDS011;3343;42.896;23.912;2022-11-15T07:19:55;4.67;;;2.67;;
6614;SDS011;3343;42.896;23.912;2022-11-15T07:22:22;4.40;;;3.13;;
6614;SDS011;3343;42.896;23.912;2022-11-15T07:24:48;4.37;;;2.93;;
6614;SDS011;3343;42.896;23.912;2022-11-15T07:27:15;5.40;;;2.70;;
6614;SDS011;3343;42.896;23.912;2022-11-15T07:29:43;6.20;;;3.07;;
6614;SDS011;3343;42.896;23.912;2022-11-15T07:32:10;5.10;;;2.80;;
6614;SDS011;3343;42.896;23.912;2022-11-15T07:34:37;4.93;;;2.93;;
6614;SDS011;3343;42.896;23.912;2022-11-15T07:37:04;4.30;;;2.90;;
6614;SDS011;3343;42.896;23.912;2022-11-15T07:39:31;4.70;;;3.00;;
6614;SDS011;3343;42.896;23.912;2022-11-15T07:41:58;4.87;;;3.03;;
6614;SDS011;3343;42.896;23.912;2022-11-15T07:44:39;5.07;;;3.17;;
6614;SDS011;3343;42.896;23.912;2022-11-15T07:47:07;6.10;;;3.33;;
6614;SDS011;3343;42.896;23.912;2022-11-15T07:49:34;6.37;;;2.37;;
6614;SDS011;3343;42.896;23.912;2022-11-15T07:52:01;9.57;;;4.20;;
6614;SDS011;3343;42.896;23.912;2022-11-15T07:54:28;6.30;;;3.83;;
6614;SDS011;3343;42.896;23.912;2022-11-15T07:56:55;21.47;;;9.50;;
6614;SDS011;3343;42.896;23.912;2022-11-15T07:59:22;15.20;;;6.43;;
6614;SDS011;3343;42.896;23.912;2022-11-15T08:01:48;12.73;;;6.33;;
6614;SDS011;3343;42.896;23.912;2022-11-15T08:04:17;7.27;;;3.90;;
6614;SDS011;3343;42.896;23.912;2022-11-15T08:06:44;6.10;;;3.60;;
6614;SDS011;3343;42.896;23.912;2022-11-15T08:09:11;12.73;;;4.50;;
6614;SDS011;3343;42.896;23.912;2022-11-15T08:11:38;4.73;;;3.40;;
6614;SDS011;3343;42.896;23.912;2022-11-15T08:14:05;5.80;;;3.13;;
6614;SDS011;3343;42.896;23.912;2022-11-15T08:16:31;5.10;;;3.80;;
6614;SDS011;3343;42.896;23.912;2022-11-15T08:18:58;5.17;;;3.43;;
6614;SDS011;3343;42.896;23.912;2022-11-15T08:21:27;9.80;;;4.80;;
6614;SDS011;3343;42.896;23.912;2022-11-15T08:23:54;16.63;;;7.67;;
6614;SDS011;3343;42.896;23.912;2022-11-15T08:26:21;5.60;;;3.67;;
6614;SDS011;3343;42.896;23.912;2022-11-15T08:28:50;5.07;;;3.30;;
6614;SDS011;3343;42.896;23.912;2022-11-15T08:31:17;4.43;;;2.87;;
6614;SDS011;3343;42.896;23.912;2022-11-15T08:33:44;7.00;;;4.43;;
6614;SDS011;3343;42.896;23.912;2022-11-15T08:36:12;8.97;;;3.60;;
6614;SDS011;3343;42.896;23.912;2022-11-15T08:38:42;20.73;;;7.97;;
6614;SDS011;3343;42.896;23.912;2022-11-15T08:41:10;7.00;;;4.23;;
6614;SDS011;3343;42.896;23.912;2022-11-15T08:43:40;6.23;;;4.07;;
6614;SDS011;3343;42.896;23.912;2022-11-15T08:46:07;6.50;;;3.70;;
6614;SDS011;3343;42.896;23.912;2022-11-15T08:48:38;5.87;;;3.50;;
6614;SDS011;3343;42.896;23.912;2022-11-15T08:51:04;5.60;;;3.33;;
6614;SDS011;3343;42.896;23.912;2022-11-15T08:53:31;3.87;;;2.83;;
6614;SDS011;3343;42.896;23.912;2022-11-15T08:56:00;5.97;;;3.80;;
6614;SDS011;3343;42.896;23.912;2022-11-15T08:58:26;7.07;;;3.63;;
6614;SDS011;3343;42.896;23.912;2022-11-15T09:00:53;8.07;;;4.50;;
6614;SDS011;3343;42.896;23.912;2022-11-15T09:45:18;26.77;;;7.87;;
6614;SDS011;3343;42.896;23.912;2022-11-15T09:47:56;29.63;;;7.63;;
6614;SDS011;3343;42.896;23.912;2022-11-15T09:50:35;48.10;;;9.13;;
6614;SDS011;3343;42.896;23.912;2022-11-15T09:53:08;7.43;;;3.70;;
6614;SDS011;3343;42.896;23.912;2022-11-15T09:55:40;8.47;;;4.13;;
6614;SDS011;3343;42.896;23.912;2022-11-15T09:58:16;6.03;;;3.77;;
6614;SDS011;3343;42.896;23.912;2022-11-15T10:25:48;5.73;;;3.97;;
6614;SDS011;3343;42.896;23.912;2022-11-15T10:28:26;7.20;;;4.17;;
6614;SDS011;3343;42.896;23.912;2022-11-15T10:30:55;9.27;;;4.33;;
6614;SDS011;3343;42.896;23.912;2022-11-15T10:33:27;7.07;;;3.90;;
6614;SDS011;3343;42.896;23.912;2022-11-15T10:36:14;5.70;;;3.77;;
6614;SDS011;3343;42.896;23.912;2022-11-15T10:38:53;7.07;;;4.27;;
6614;SDS011;3343;42.896;23.912;2022-11-15T10:41:30;6.20;;;4.00;;
6614;SDS011;3343;42.896;23.912;2022-11-15T10:44:07;4.70;;;3.27;;
6614;SDS011;3343;42.896;23.912;2022-11-15T10:46:46;6.67;;;3.77;;
6614;SDS011;3343;42.896;23.912;2022-11-15T10:49:16;6.40;;;3.80;;
6614;SDS011;3343;42.896;23.912;2022-11-15T10:51:45;6.83;;;3.87;;
6614;SDS011;3343;42.896;23.912;2022-11-15T10:54:16;11.40;;;3.90;;
6614;SDS011;3343;42.896;23.912;2022-11-15T10:57:03;10.73;;;4.67;;
6614;SDS011;3343;42.896;23.912;2022-11-15T10:59:32;9.53;;;4.67;;
6614;SDS011;3343;42.896;23.912;2022-11-15T11:02:09;7.63;;;4.43;;
6614;SDS011;3343;42.896;23.912;2022-11-15T11:04:54;5.97;;;4.23;;
6614;SDS011;3343;42.896;23.912;2022-11-15T11:07:22;7.97;;;4.70;;
6614;SDS011;3343;42.896;23.912;2022-11-15T11:09:56;5.87;;;3.80;;
6614;SDS011;3343;42.896;23.912;2022-11-15T11:12:28;7.43;;;4.00;;
6614;SDS011;3343;42.896;23.912;2022-11-15T11:14:57;6.67;;;4.00;;
6614;SDS011;3343;42.896;23.912;2022-11-15T11:17:29;8.07;;;4.47;;
6614;SDS011;3343;42.896;23.912;2022-11-15T11:20:04;6.20;;;4.23;;
6614;SDS011;3343;42.896;23.912;2022-11-15T11:22:38;9.73;;;5.13;;
6614;SDS011;3343;42.896;23.912;2022-11-15T11:25:19;8.10;;;4.67;;
6614;SDS011;3343;42.896;23.912;2022-11-15T11:27:59;6.70;;;4.50;;
6614;SDS011;3343;42.896;23.912;2022-11-15T11:30:41;9.27;;;4.90;;
6614;SDS011;3343;42.896;23.912;2022-11-15T11:33:16;11.07;;;4.73;;
6614;SDS011;3343;42.896;23.912;2022-11-15T11:35:47;6.73;;;4.30;;
6614;SDS011;3343;42.896;23.912;2022-11-15T11:38:28;8.30;;;4.50;;
6614;SDS011;3343;42.896;23.912;2022-11-15T11:41:09;7.87;;;4.53;;
6614;SDS011;3343;42.896;23.912;2022-11-15T11:43:47;5.70;;;4.37;;
6614;SDS011;3343;42.896;23.912;2022-11-15T11:46:36;7.43;;;4.50;;
6614;SDS011;3343;42.896;23.912;2022-11-15T11:49:16;6.30;;;4.03;;
6614;SDS011;3343;42.896;23.912;2022-11-15T11:51:47;6.97;;;4.00;;
6614;SDS011;3343;42.896;23.912;2022-11-15T11:54:20;6.80;;;4.37;;
6614;SDS011;3343;42.896;23.912;2022-11-15T11:56:53;6.70;;;4.00;;
6614;SDS011;3343;42.896;23.912;2022-11-15T11:59:28;5.37;;;4.10;;
6614;SDS011;3343;42.896;23.912;2022-11-15T12:02:07;5.20;;;3.73;;
6614;SDS011;3343;42.896;23.912;2022-11-15T12:04:41;5.30;;;4.00;;
6614;SDS011;3343;42.896;23.912;2022-11-15T12:07:16;5.17;;;3.80;;
6614;SDS011;3343;42.896;23.912;2022-11-15T12:09:51;6.83;;;3.77;;
6614;SDS011;3343;42.896;23.912;2022-11-15T12:12:25;5.80;;;4.03;;
6614;SDS011;3343;42.896;23.912;2022-11-15T12:15:00;6.37;;;4.07;;
6614;SDS011;3343;42.896;23.912;2022-11-15T12:17:30;7.73;;;3.70;;
6614;SDS011;3343;42.896;23.912;2022-11-15T12:19:58;5.80;;;3.63;;
6614;SDS011;3343;42.896;23.912;2022-11-15T12:22:31;5.83;;;3.77;;
6614;SDS011;3343;42.896;23.912;2022-11-15T12:25:04;6.47;;;3.57;;
6614;SDS011;3343;42.896;23.912;2022-11-15T12:27:35;5.40;;;3.70;;
6614;SDS011;3343;42.896;23.912;2022-11-15T12:30:10;5.83;;;3.33;;
6614;SDS011;3343;42.896;23.912;2022-11-15T12:32:39;5.63;;;3.80;;
6614;SDS011;3343;42.896;23.912;2022-11-15T12:35:21;5.17;;;3.47;;
6614;SDS011;3343;42.896;23.912;2022-11-15T12:37:53;7.47;;;4.27;;
6614;SDS011;3343;42.896;23.912;2022-11-15T12:40:27;11.47;;;4.17;;
6614;SDS011;3343;42.896;23.912;2022-11-15T12:42:57;12.30;;;4.07;;
6614;SDS011;3343;42.896;23.912;2022-11-15T12:45:53;7.27;;;4.20;;
6614;SDS011;3343;42.896;23.912;2022-11-15T12:57:34;8.83;;;5.53;;
6614;SDS011;3343;42.896;23.912;2022-11-15T13:03:24;7.67;;;4.90;;
6614;SDS011;3343;42.896;23.912;2022-11-15T13:05:58;9.73;;;5.73;;
6614;SDS011;3343;42.896;23.912;2022-11-15T13:08:47;9.50;;;4.80;;
6614;SDS011;3343;42.896;23.912;2022-11-15T13:17:27;6.57;;;4.80;;
6614;SDS011;3343;42.896;23.912;2022-11-15T13:20:02;9.40;;;5.30;;
6614;SDS011;3343;42.896;23.912;2022-11-15T13:23:02;8.37;;;4.70;;
6614;SDS011;3343;42.896;23.912;2022-11-15T13:25:43;6.93;;;4.73;;
6614;SDS011;3343;42.896;23.912;2022-11-15T13:28:20;7.17;;;4.57;;
6614;SDS011;3343;42.896;23.912;2022-11-15T13:30:52;7.83;;;4.73;;
6614;SDS011;3343;42.896;23.912;2022-11-15T13:33:21;11.23;;;5.10;;
6614;SDS011;3343;42.896;23.912;2022-11-15T13:35:51;7.43;;;5.13;;
6614;SDS011;3343;42.896;23.912;2022-11-15T13:38:25;9.30;;;4.73;;
6614;SDS011;3343;42.896;23.912;2022-11-15T13:40:53;5.50;;;4.20;;
6614;SDS011;3343;42.896;23.912;2022-11-15T13:43:25;10.63;;;5.00;;
6614;SDS011;3343;42.896;23.912;2022-11-15T13:46:05;9.33;;;5.03;;
6614;SDS011;3343;42.896;23.912;2022-11-15T13:48:33;9.03;;;5.57;;
6614;SDS011;3343;42.896;23.912;2022-11-15T13:51:01;8.50;;;4.77;;
6614;SDS011;3343;42.896;23.912;2022-11-15T13:53:31;7.70;;;5.13;;
6614;SDS011;3343;42.896;23.912;2022-11-15T13:55:59;10.30;;;6.07;;
6614;SDS011;3343;42.896;23.912;2022-11-15T13:58:28;12.03;;;5.83;;
6614;SDS011;3343;42.896;23.912;2022-11-15T14:00:59;9.23;;;5.57;;
6614;SDS011;3343;42.896;23.912;2022-11-15T14:03:28;10.03;;;5.70;;
6614;SDS011;3343;42.896;23.912;2022-11-15T14:06:06;8.33;;;5.37;;
6614;SDS011;3343;42.896;23.912;2022-11-15T14:08:37;9.63;;;4.73;;
6614;SDS011;3343;42.896;23.912;2022-11-15T14:11:08;8.87;;;5.47;;
6614;SDS011;3343;42.896;23.912;2022-11-15T14:13:40;13.30;;;5.63;;
6614;SDS011;3343;42.896;23.912;2022-11-15T14:16:13;7.43;;;5.13;;
6614;SDS011;3343;42.896;23.912;2022-11-15T14:18:44;9.13;;;5.30;;
6614;SDS011;3343;42.896;23.912;2022-11-15T14:21:14;8.17;;;5.57;;
6614;SDS011;3343;42.896;23.912;2022-11-15T14:23:42;9.10;;;5.50;;
6614;SDS011;3343;42.896;23.912;2022-11-15T14:26:22;10.73;;;5.80;;
6614;SDS011;3343;42.896;23.912;2022-11-15T14:28:53;10.13;;;5.87;;
6614;SDS011;3343;42.896;23.912;2022-11-15T14:31:19;8.57;;;5.43;;
6614;SDS011;3343;42.896;23.912;2022-11-15T14:33:47;12.07;;;5.67;;
6614;SDS011;3343;42.896;23.912;2022-11-15T14:36:17;12.23;;;5.97;;
6614;SDS011;3343;42.896;23.912;2022-11-15T14:38:45;10.30;;;6.23;;
6614;SDS011;3343;42.896;23.912;2022-11-15T14:41:20;9.23;;;5.73;;
6614;SDS011;3343;42.896;23.912;2022-11-15T14:43:48;12.07;;;6.93;;
6614;SDS011;3343;42.896;23.912;2022-11-15T14:46:15;13.97;;;6.87;;
6614;SDS011;3343;42.896;23.912;2022-11-15T14:48:42;13.23;;;6.60;;
6614;SDS011;3343;42.896;23.912;2022-11-15T14:51:11;12.97;;;6.57;;
6614;SDS011;3343;42.896;23.912;2022-11-15T14:53:40;9.20;;;5.60;;
6614;SDS011;3343;42.896;23.912;2022-11-15T14:56:09;12.23;;;6.37;;
6614;SDS011;3343;42.896;23.912;2022-11-15T14:58:36;10.77;;;6.47;;
6614;SDS011;3343;42.896;23.912;2022-11-15T15:01:05;11.33;;;5.97;;
6614;SDS011;3343;42.896;23.912;2022-11-15T15:03:38;11.10;;;6.33;;
6614;SDS011;3343;42.896;23.912;2022-11-15T15:06:05;14.97;;;6.97;;
6614;SDS011;3343;42.896;23.912;2022-11-15T15:08:34;12.17;;;6.13;;
6614;SDS011;3343;42.896;23.912;2022-11-15T15:11:03;10.07;;;5.70;;
6614;SDS011;3343;42.896;23.912;2022-11-15T15:13:35;14.83;;;6.30;;
6614;SDS011;3343;42.896;23.912;2022-11-15T15:16:02;10.03;;;5.63;;
6614;SDS011;3343;42.896;23.912;2022-11-15T15:18:29;10.47;;;6.30;;
6614;SDS011;3343;42.896;23.912;2022-11-15T15:20:57;11.80;;;7.27;;
6614;SDS011;3343;42.896;23.912;2022-11-15T15:23:28;11.83;;;6.50;;
6614;SDS011;3343;42.896;23.912;2022-11-15T15:25:56;12.57;;;6.50;;
6614;SDS011;3343;42.896;23.912;2022-11-15T15:28:24;15.43;;;7.27;;
6614;SDS011;3343;42.896;23.912;2022-11-15T15:30:51;16.50;;;7.23;;
6614;SDS011;3343;42.896;23.912;2022-11-15T15:33:19;15.37;;;8.40;;
6614;SDS011;3343;42.896;23.912;2022-11-15T15:35:46;13.43;;;7.10;;
6614;SDS011;3343;42.896;23.912;2022-11-15T15:38:12;15.63;;;7.80;;
6614;SDS011;3343;42.896;23.912;2022-11-15T15:40:40;14.07;;;7.83;;
6614;SDS011;3343;42.896;23.912;2022-11-15T15:43:07;14.00;;;8.07;;
6614;SDS011;3343;42.896;23.912;2022-11-15T15:45:36;13.53;;;8.30;;
6614;SDS011;3343;42.896;23.912;2022-11-15T15:48:04;10.47;;;6.63;;
6614;SDS011;3343;42.896;23.912;2022-11-15T15:50:32;11.33;;;6.70;;
6614;SDS011;3343;42.896;23.912;2022-11-15T15:53:00;14.83;;;6.57;;
6614;SDS011;3343;42.896;23.912;2022-11-15T15:55:29;12.20;;;6.47;;
6614;SDS011;3343;42.896;23.912;2022-11-15T15:57:55;13.10;;;6.83;;
6614;SDS011;3343;42.896;23.912;2022-11-15T16:00:24;12.40;;;6.40;;
6614;SDS011;3343;42.896;23.912;2022-11-15T16:02:53;12.83;;;7.23;;
6614;SDS011;3343;42.896;23.912;2022-11-15T16:05:20;12.40;;;6.50;;
6614;SDS011;3343;42.896;23.912;2022-11-15T16:07:48;17.07;;;8.53;;
6614;SDS011;3343;42.896;23.912;2022-11-15T16:10:19;14.50;;;7.87;;
6614;SDS011;3343;42.896;23.912;2022-11-15T16:12:50;11.13;;;7.47;;
6614;SDS011;3343;42.896;23.912;2022-11-15T16:15:17;15.80;;;7.80;;
6614;SDS011;3343;42.896;23.912;2022-11-15T16:17:45;15.17;;;8.57;;
6614;SDS011;3343;42.896;23.912;2022-11-15T16:20:22;18.93;;;9.23;;
6614;SDS011;3343;42.896;23.912;2022-11-15T16:22:57;15.53;;;8.53;;
6614;SDS011;3343;42.896;23.912;2022-11-15T16:25:25;21.47;;;9.13;;
6614;SDS011;3343;42.896;23.912;2022-11-15T16:27:52;18.10;;;8.53;;
6614;SDS011;3343;42.896;23.912;2022-11-15T16:30:19;19.20;;;9.60;;
6614;SDS011;3343;42.896;23.912;2022-11-15T16:32:48;18.00;;;9.63;;
6614;SDS011;3343;42.896;23.912;2022-11-15T16:35:15;15.80;;;9.10;;
6614;SDS011;3343;42.896;23.912;2022-11-15T16:37:44;23.87;;;10.80;;
6614;SDS011;3343;42.896;23.912;2022-11-15T16:40:16;19.23;;;9.17;;
6614;SDS011;3343;42.896;23.912;2022-11-15T16:42:49;18.93;;;9.27;;
6614;SDS011;3343;42.896;23.912;2022-11-15T16:45:16;13.67;;;8.57;;
6614;SDS011;3343;42.896;23.912;2022-11-15T16:47:43;15.30;;;8.67;;
6614;SDS011;3343;42.896;23.912;2022-11-15T16:50:11;18.93;;;9.03;;
6614;SDS011;3343;42.896;23.912;2022-11-15T16:52:51;18.00;;;8.10;;
6614;SDS011;3343;42.896;23.912;2022-11-15T16:55:18;14.80;;;7.70;;